createdAt,value
2023-03-30T00:03:39.280Z,72.13
2023-03-30T00:08:40.111Z,72.52
2023-03-30T00:13:43.004Z,72.58
2023-03-30T00:18:45.048Z,72.21
2023-03-30T00:23:47.912Z,72.15
2023-03-30T00:28:50.029Z,73.19
2023-03-30T00:33:50.787Z,72.87
2023-03-30T00:38:53.481Z,72.30
2023-03-30T00:44:00.880Z,72.46
2023-03-30T00:49:05.673Z,72.77
2023-03-30T00:54:11.057Z,71.99
2023-03-30T00:59:13.988Z,71.93
2023-03-30T01:04:14.761Z,72.32
2023-03-30T01:09:16.518Z,71.39
2023-03-30T01:14:18.934Z,71.93
2023-03-30T01:19:49.260Z,71.46
2023-03-30T01:25:18.414Z,71.93
2023-03-30T01:30:37.493Z,71.72
2023-03-30T01:36:05.765Z,71.75
2023-03-30T01:41:16.118Z,71.97
2023-03-30T01:46:25.364Z,72.61
2023-03-30T01:51:30.393Z,72.63
2023-03-30T01:56:37.276Z,73.10
2023-03-30T02:01:41.601Z,72.76
2023-03-30T02:06:47.739Z,72.68
2023-03-30T02:11:53.610Z,73.16
2023-03-30T02:17:00.107Z,73.28
2023-03-30T02:22:02.101Z,73.66
2023-03-30T02:27:06.673Z,74.16
2023-03-30T02:32:07.738Z,73.86
2023-03-30T02:37:30.132Z,74.55
2023-03-30T02:43:00.125Z,74.19
2023-03-30T02:48:12.196Z,74.18
2023-03-30T02:53:19.837Z,74.33
2023-03-30T02:58:29.713Z,74.60
2023-03-30T03:03:43.328Z,74.46
2023-03-30T03:08:47.822Z,74.10
2023-03-30T03:13:55.602Z,74.08
2023-03-30T03:18:56.874Z,73.98
2023-03-30T03:23:58.396Z,73.86
2023-03-30T03:29:12.754Z,73.93
2023-03-30T03:34:13.553Z,73.69
2023-03-30T03:39:31.680Z,73.14
2023-03-30T03:44:40.882Z,72.96
2023-03-30T03:49:41.635Z,72.48
2023-03-30T03:54:42.445Z,73.03
2023-03-30T03:59:44.862Z,73.83
2023-03-30T04:04:47.212Z,73.73
2023-03-30T04:09:48.782Z,73.35
2023-03-30T04:15:12.215Z,73.69
2023-03-30T04:20:29.050Z,74.37
2023-03-30T04:25:45.723Z,76.20
2023-03-30T04:31:00.219Z,73.65
2023-03-30T04:36:23.768Z,73.48
2023-03-30T04:41:47.610Z,73.79
2023-03-30T04:47:02.617Z,74.41
2023-03-30T04:52:32.353Z,75.17
2023-03-30T04:57:59.221Z,75.76
2023-03-30T05:03:23.088Z,75.75
2023-03-30T05:08:27.612Z,75.66
2023-03-30T05:13:48.511Z,75.30
2023-03-30T05:19:17.241Z,75.09
2023-03-30T05:24:36.602Z,74.46
2023-03-30T05:29:55.826Z,74.96
2023-03-30T05:35:14.253Z,74.27
2023-03-30T05:40:53.803Z,74.15
2023-03-30T05:46:13.436Z,73.60
2023-03-30T05:51:26.134Z,73.39
2023-03-30T05:56:42.445Z,73.05
2023-03-30T06:01:54.286Z,71.93
2023-03-30T06:06:56.570Z,70.61
2023-03-30T06:11:58.633Z,70.59
2023-03-30T06:16:59.440Z,70.65
2023-03-30T06:22:01.668Z,70.05
2023-03-30T06:27:13.448Z,69.35
2023-03-30T06:32:14.905Z,67.53
2023-03-30T06:37:45.776Z,66.94
2023-03-30T06:42:47.042Z,67.19
2023-03-30T06:48:20.932Z,66.33
2023-03-30T06:53:30.155Z,67.32
2023-03-30T06:58:31.823Z,67.33
2023-03-30T07:03:32.890Z,66.67
2023-03-30T07:08:59.611Z,67.02
2023-03-30T07:14:06.566Z,66.25
2023-03-30T07:19:08.997Z,66.72
2023-03-30T07:24:11.297Z,66.93
2023-03-30T07:29:15.503Z,66.44
2023-03-30T07:34:19.190Z,65.55
2023-03-30T07:39:27.131Z,65.14
2023-03-30T07:44:29.288Z,64.08
2023-03-30T07:49:33.886Z,63.17
2023-03-30T07:54:36.219Z,62.54
2023-03-30T07:59:45.900Z,61.28
2023-03-30T08:05:13.007Z,59.43
2023-03-30T08:10:25.947Z,57.62
2023-03-30T08:15:27.786Z,57.19
2023-03-30T08:20:28.484Z,57.13
2023-03-30T08:25:31.072Z,57.63
2023-03-30T08:30:32.314Z,57.52
2023-03-30T08:35:33.098Z,57.93
2023-03-30T08:40:35.195Z,57.50
2023-03-30T08:45:40.374Z,57.38
2023-03-30T08:50:48.819Z,56.37
2023-03-30T08:55:54.822Z,56.99
2023-03-30T09:01:04.186Z,58.08
2023-03-30T09:06:10.747Z,58.75
2023-03-30T09:11:16.097Z,59.66
2023-03-30T09:16:21.933Z,60.99
2023-03-30T09:21:26.505Z,62.29
2023-03-30T09:26:40.844Z,62.56
2023-03-30T09:31:45.007Z,66.55
2023-03-30T09:36:53.169Z,68.02
2023-03-30T09:42:09.763Z,70.91
2023-03-30T09:47:23.029Z,72.19
2023-03-30T09:52:26.286Z,73.76
2023-03-30T09:57:30.660Z,75.12
2023-03-30T10:02:33.967Z,75.53
2023-03-30T10:07:37.761Z,77.19
2023-03-30T10:12:40.200Z,76.71
2023-03-30T10:17:42.049Z,76.69
2023-03-30T10:22:51.733Z,76.54
2023-03-30T10:27:57.266Z,77.29
2023-03-30T10:33:00.785Z,77.78
2023-03-30T10:38:03.490Z,78.62
2023-03-30T10:43:08.700Z,78.12
2023-03-30T10:48:25.413Z,77.88
2023-03-30T10:53:35.844Z,78.63
2023-03-30T10:58:52.921Z,78.20
2023-03-30T11:04:04.533Z,78.67
2023-03-30T11:09:15.691Z,77.78
2023-03-30T11:14:22.300Z,76.05
2023-03-30T11:19:25.522Z,76.08
2023-03-30T11:24:28.769Z,75.31
2023-03-30T11:29:38.186Z,74.80
2023-03-30T11:34:55.701Z,75.21
2023-03-30T11:40:02.299Z,75.34
2023-03-30T11:45:25.725Z,73.21
2023-03-30T11:50:37.597Z,71.01
2023-03-30T11:55:52.126Z,67.25
2023-03-30T12:01:06.081Z,63.97
2023-03-30T12:06:21.717Z,62.06
2023-03-30T12:11:30.747Z,60.74
2023-03-30T12:16:41.333Z,59.88
2023-03-30T12:21:52.246Z,59.97
2023-03-30T12:27:04.553Z,59.36
2023-03-30T12:32:21.126Z,58.89
2023-03-30T12:37:23.910Z,59.26
2023-03-30T12:42:35.299Z,56.28
2023-03-30T12:47:56.481Z,54.18
2023-03-30T12:53:26.260Z,53.96
2023-03-30T12:58:51.733Z,54.06
2023-03-30T13:03:56.168Z,53.11
2023-03-30T13:09:04.633Z,51.61
2023-03-30T13:14:26.175Z,52.04
2023-03-30T13:19:30.313Z,51.57
2023-03-30T13:24:41.118Z,50.37
2023-03-30T13:29:42.935Z,51.00
2023-03-30T13:35:09.436Z,51.51
2023-03-30T13:40:24.496Z,51.21
2023-03-30T13:45:44.309Z,52.01
2023-03-30T13:50:58.523Z,51.25
2023-03-30T13:55:59.588Z,52.13
2023-03-30T14:01:03.761Z,52.11
2023-03-30T14:06:08.624Z,50.97
2023-03-30T14:11:15.490Z,50.25
2023-03-30T14:16:21.519Z,49.36
2023-03-30T14:21:24.476Z,48.90
2023-03-30T14:26:27.423Z,49.29
2023-03-30T14:31:28.171Z,49.86
2023-03-30T14:36:30.631Z,48.04
2023-03-30T14:41:31.689Z,48.88
2023-03-30T14:46:39.948Z,49.64
2023-03-30T14:51:43.616Z,48.81
2023-03-30T14:56:46.501Z,49.37
2023-03-30T15:01:47.868Z,48.42
2023-03-30T15:06:50.480Z,49.47
2023-03-30T15:11:56.665Z,49.30
2023-03-30T15:16:58.094Z,49.98
2023-03-30T15:22:03.591Z,51.16
2023-03-30T15:27:07.598Z,57.63
2023-03-30T15:32:15.112Z,54.72
2023-03-30T15:37:24.351Z,54.75
2023-03-30T15:42:26.815Z,55.40
2023-03-30T15:47:27.642Z,56.00
2023-03-30T15:52:34.666Z,56.13
2023-03-30T15:57:37.034Z,56.37
2023-03-30T16:02:39.583Z,59.57
2023-03-30T16:07:42.642Z,65.22
2023-03-30T16:12:45.831Z,72.69
2023-03-30T16:17:47.001Z,73.81
2023-03-30T16:22:49.698Z,75.01
2023-03-30T16:27:50.481Z,75.52
2023-03-30T16:32:51.289Z,75.37
2023-03-30T16:37:53.346Z,76.20
2023-03-30T16:42:54.271Z,76.16
2023-03-30T16:47:55.119Z,76.96
2023-03-30T16:52:57.267Z,78.05
2023-03-30T16:57:58.067Z,77.80
2023-03-30T17:02:59.052Z,76.56
2023-03-30T17:08:06.146Z,74.14
2023-03-30T17:13:08.175Z,72.05
2023-03-30T17:18:14.398Z,69.98
2023-03-30T17:23:17.624Z,69.32
2023-03-30T17:28:22.352Z,69.88
2023-03-30T17:33:23.511Z,69.00
2023-03-30T17:38:25.745Z,67.02
2023-03-30T17:43:26.382Z,67.47
2023-03-30T17:48:27.168Z,68.06
2023-03-30T17:53:29.281Z,67.64
2023-03-30T17:58:34.050Z,66.31
2023-03-30T18:03:36.139Z,65.56
2023-03-30T18:08:39.022Z,66.11
2023-03-30T18:13:39.708Z,66.81
2023-03-30T18:18:40.716Z,67.13
2023-03-30T18:23:42.743Z,67.74
2023-03-30T18:28:44.295Z,67.98
2023-03-30T18:33:45.468Z,67.68
2023-03-30T18:38:48.632Z,68.73
2023-03-30T18:43:50.415Z,68.31
2023-03-30T18:48:51.058Z,68.73
2023-03-30T18:53:55.110Z,68.68
2023-03-30T18:58:58.511Z,69.63
2023-03-30T19:04:03.281Z,69.74
2023-03-30T19:09:05.819Z,69.01
2023-03-30T19:14:07.672Z,70.47
2023-03-30T19:19:14.900Z,70.17
2023-03-30T19:24:17.620Z,71.01
2023-03-30T19:29:18.299Z,71.27
2023-03-30T19:34:19.211Z,71.32
2023-03-30T19:39:21.378Z,70.56
2023-03-30T19:44:22.188Z,70.55
2023-03-30T19:49:22.901Z,71.58
2023-03-30T19:54:25.060Z,70.59
2023-03-30T19:59:25.829Z,69.97
2023-03-30T20:04:26.535Z,70.00
2023-03-30T20:09:28.958Z,71.04
2023-03-30T20:14:29.826Z,71.71
2023-03-30T20:19:31.879Z,71.72
2023-03-30T20:24:34.265Z,70.34
2023-03-30T20:29:34.979Z,69.62
2023-03-30T20:34:36.113Z,69.48
2023-03-30T20:39:38.187Z,69.06
2023-03-30T20:44:40.580Z,69.21
2023-03-30T20:49:43.708Z,69.08
2023-03-30T20:54:45.770Z,69.01
2023-03-30T20:59:47.929Z,68.98
2023-03-30T21:04:49.571Z,67.63
2023-03-30T21:09:51.972Z,68.92
2023-03-30T21:14:52.672Z,70.43
2023-03-30T21:19:53.367Z,71.10
2023-03-30T21:24:55.494Z,71.02
2023-03-30T21:29:56.902Z,70.80
2023-03-30T21:34:57.625Z,71.00
2023-03-30T21:39:59.611Z,70.42
2023-03-30T21:45:00.353Z,70.66
2023-03-30T21:50:01.010Z,70.35
2023-03-30T21:55:03.167Z,69.54
2023-03-30T22:00:06.010Z,70.86
2023-03-30T22:05:13.177Z,70.40
2023-03-30T22:10:15.193Z,71.68
2023-03-30T22:15:15.951Z,70.44
2023-03-30T22:20:18.253Z,70.73
2023-03-30T22:25:20.503Z,71.33
2023-03-30T22:30:21.749Z,70.91
2023-03-30T22:35:22.422Z,70.05
2023-03-30T22:40:24.425Z,70.18
2023-03-30T22:45:25.898Z,69.00
2023-03-30T22:50:28.525Z,69.99
2023-03-30T22:55:30.574Z,68.43
2023-03-30T23:00:31.469Z,68.66
2023-03-30T23:05:33.558Z,69.13
2023-03-30T23:10:37.477Z,68.99
2023-03-30T23:15:38.292Z,68.77
2023-03-30T23:20:39.016Z,69.21
2023-03-30T23:25:44.677Z,68.72
2023-03-30T23:30:45.790Z,68.94
2023-03-30T23:35:50.119Z,67.88
2023-03-30T23:40:57.229Z,68.02
2023-03-30T23:46:00.521Z,67.51
2023-03-30T23:51:01.216Z,68.22
2023-03-30T23:56:06.166Z,67.38
